createdAt,value
2023-03-14T00:01:23.366Z,16.27
2023-03-14T00:03:51.331Z,19.13
2023-03-14T00:06:19.768Z,16.77
2023-03-14T00:08:47.387Z,21.00
2023-03-14T00:11:19.949Z,19.70
2023-03-14T00:13:51.567Z,17.50
2023-03-14T00:16:19.236Z,21.60
2023-03-14T00:18:46.362Z,17.93
2023-03-14T00:21:13.933Z,18.53
2023-03-14T00:23:42.289Z,19.63
2023-03-14T00:26:14.839Z,20.90
2023-03-14T00:28:43.219Z,19.20
2023-03-14T00:31:12.692Z,20.07
2023-03-14T00:33:42.588Z,20.80
2023-03-14T00:36:13.044Z,22.53
2023-03-14T00:38:42.195Z,20.73
2023-03-14T00:41:11.900Z,19.43
2023-03-14T00:43:39.456Z,19.63
2023-03-14T00:46:07.428Z,18.23
2023-03-14T00:48:35.144Z,18.93
2023-03-14T00:51:04.768Z,18.50
2023-03-14T00:53:32.061Z,18.83
2023-03-14T00:56:04.678Z,17.43
2023-03-14T00:58:31.700Z,19.33
2023-03-14T01:00:58.927Z,21.37
2023-03-14T01:03:26.257Z,22.30
2023-03-14T01:05:53.171Z,15.67
2023-03-14T01:08:20.150Z,16.80
2023-03-14T01:10:47.094Z,19.97
2023-03-14T01:13:14.213Z,22.90
2023-03-14T01:15:41.144Z,18.63
2023-03-14T01:18:11.900Z,19.77
2023-03-14T01:20:38.826Z,22.87
2023-03-14T01:23:05.678Z,16.87
2023-03-14T01:25:32.623Z,17.33
2023-03-14T01:28:01.753Z,22.63
2023-03-14T01:30:29.228Z,19.50
2023-03-14T01:32:56.261Z,17.60
2023-03-14T01:35:23.300Z,17.10
2023-03-14T01:37:50.602Z,19.13
2023-03-14T01:40:21.931Z,23.63
2023-03-14T01:42:57.473Z,19.03
2023-03-14T01:46:02.106Z,16.03
2023-03-14T01:48:35.905Z,14.97
2023-03-14T01:51:04.289Z,14.30
2023-03-14T01:53:31.218Z,19.63
2023-03-14T01:55:58.669Z,18.80
2023-03-14T01:58:28.265Z,17.90
2023-03-14T02:00:58.763Z,17.13
2023-03-14T02:03:27.676Z,17.23
2023-03-14T02:05:58.946Z,16.97
2023-03-14T02:08:28.517Z,18.70
2023-03-14T02:11:00.049Z,19.53
2023-03-14T02:13:47.395Z,15.27
2023-03-14T02:16:37.557Z,17.37
2023-03-14T02:19:36.202Z,14.40
2023-03-14T02:22:23.646Z,14.43
2023-03-14T02:25:07.946Z,14.80
2023-03-14T02:27:35.253Z,16.80
2023-03-14T02:30:06.890Z,15.70
2023-03-14T02:32:37.022Z,10.90
2023-03-14T02:35:09.973Z,11.80
2023-03-14T02:37:43.704Z,9.53
2023-03-14T02:40:11.813Z,11.00
2023-03-14T02:42:40.252Z,11.00
2023-03-14T02:45:10.120Z,11.70
2023-03-14T02:47:48.105Z,8.13
2023-03-14T02:50:24.605Z,7.10
2023-03-14T02:52:51.752Z,14.00
2023-03-14T02:55:23.834Z,13.43
2023-03-14T02:57:54.449Z,14.77
2023-03-14T03:00:21.773Z,15.10
2023-03-14T03:02:48.979Z,16.07
2023-03-14T03:05:16.274Z,14.93
2023-03-14T03:07:43.394Z,13.00
2023-03-14T03:10:11.087Z,12.60
2023-03-14T03:12:38.731Z,15.33
2023-03-14T03:15:06.386Z,11.30
2023-03-14T03:17:36.460Z,11.20
2023-03-14T03:20:05.819Z,7.30
2023-03-14T03:22:33.610Z,7.47
2023-03-14T03:25:03.737Z,7.60
2023-03-14T03:27:37.048Z,6.53
2023-03-14T03:30:06.652Z,9.23
2023-03-14T03:32:34.887Z,6.53
2023-03-14T03:35:04.666Z,8.93
2023-03-14T03:37:34.356Z,7.33
2023-03-14T03:40:01.845Z,6.67
2023-03-14T03:42:29.188Z,11.90
2023-03-14T03:44:56.458Z,9.13
2023-03-14T03:47:24.527Z,8.93
2023-03-14T03:49:51.709Z,9.10
2023-03-14T03:52:18.789Z,5.47
2023-03-14T03:54:45.857Z,6.80
2023-03-14T03:57:14.114Z,7.40
2023-03-14T03:59:42.082Z,7.33
2023-03-14T04:02:09.351Z,5.07
2023-03-14T04:04:36.678Z,5.00
2023-03-14T04:07:04.870Z,7.40
2023-03-14T04:09:32.181Z,6.30
2023-03-14T04:12:28.364Z,6.63
2023-03-14T04:15:04.074Z,4.77
2023-03-14T04:17:31.769Z,5.53
2023-03-14T04:19:58.749Z,6.30
2023-03-14T04:22:34.134Z,6.37
2023-03-14T04:25:03.384Z,5.97
2023-03-14T04:27:33.434Z,6.40
2023-03-14T04:30:02.123Z,5.70
2023-03-14T04:32:50.331Z,5.27
2023-03-14T04:35:18.634Z,6.47
2023-03-14T04:37:45.628Z,4.73
2023-03-14T04:40:18.208Z,10.93
2023-03-14T04:42:46.230Z,2.53
2023-03-14T04:45:14.032Z,9.13
2023-03-14T04:47:42.830Z,5.23
2023-03-14T04:50:14.243Z,6.33
2023-03-14T04:52:41.592Z,8.77
2023-03-14T04:55:09.178Z,9.83
2023-03-14T04:57:36.878Z,6.90
2023-03-14T05:00:08.343Z,4.33
2023-03-14T05:02:53.795Z,4.63
2023-03-14T05:05:39.424Z,3.83
2023-03-14T05:08:16.627Z,5.80
2023-03-14T05:11:06.990Z,5.77
2023-03-14T05:13:42.801Z,5.30
2023-03-14T05:16:18.652Z,7.33
2023-03-14T05:19:06.057Z,7.00
2023-03-14T05:21:51.642Z,7.03
2023-03-14T05:24:38.885Z,3.97
2023-03-14T05:27:25.848Z,6.37
2023-03-14T05:30:13.508Z,6.47
2023-03-14T05:32:58.650Z,2.03
2023-03-14T05:35:44.535Z,5.60
2023-03-14T05:38:31.189Z,5.63
2023-03-14T05:41:11.375Z,4.73
2023-03-14T05:44:04.638Z,3.63
2023-03-14T05:47:03.853Z,3.67
2023-03-14T05:49:51.073Z,7.70
2023-03-14T05:52:31.602Z,7.57
2023-03-14T05:55:09.534Z,5.13
2023-03-14T05:57:55.741Z,6.63
2023-03-14T06:00:37.864Z,6.50
2023-03-14T06:03:18.431Z,5.43
2023-03-14T06:05:52.091Z,5.57
2023-03-14T06:08:20.938Z,4.20
2023-03-14T06:10:47.903Z,6.03
2023-03-14T06:13:16.342Z,6.67
2023-03-14T06:15:44.317Z,4.90
2023-03-14T06:18:13.383Z,4.03
2023-03-14T06:20:41.437Z,4.60
2023-03-14T06:23:11.161Z,4.07
2023-03-14T06:25:38.703Z,2.83
2023-03-14T06:28:05.787Z,5.10
2023-03-14T06:30:33.220Z,5.83
2023-03-14T06:33:00.281Z,5.70
2023-03-14T06:35:28.382Z,3.17
2023-03-14T06:37:55.545Z,6.20
2023-03-14T06:40:23.336Z,5.00
2023-03-14T06:43:19.275Z,5.83
2023-03-14T06:45:47.515Z,3.47
2023-03-14T06:48:14.583Z,7.43
2023-03-14T06:50:49.840Z,5.47
2023-03-14T06:53:16.836Z,8.20
2023-03-14T06:55:45.014Z,7.13
2023-03-14T06:58:12.604Z,4.73
2023-03-14T07:00:43.593Z,6.57
2023-03-14T07:03:15.303Z,7.77
2023-03-14T07:05:45.783Z,6.53
2023-03-14T07:08:12.719Z,5.17
2023-03-14T07:10:39.714Z,4.10
2023-03-14T07:13:08.565Z,4.27
2023-03-14T07:15:44.290Z,7.50
2023-03-14T07:18:11.568Z,7.07
2023-03-14T07:20:39.252Z,5.87
2023-03-14T07:23:07.667Z,8.33
2023-03-14T07:25:39.765Z,7.83
2023-03-14T07:28:06.985Z,3.77
2023-03-14T07:30:34.648Z,8.37
2023-03-14T07:33:04.302Z,6.07
2023-03-14T07:35:31.305Z,3.83
2023-03-14T07:37:58.307Z,5.70
2023-03-14T07:40:32.609Z,8.20
2023-03-14T07:43:00.038Z,6.13
2023-03-14T07:45:31.725Z,4.53
2023-03-14T07:47:58.843Z,6.83
2023-03-14T07:50:27.106Z,7.03
2023-03-14T07:52:55.794Z,7.33
2023-03-14T07:55:22.882Z,5.73
2023-03-14T07:57:50.008Z,8.40
2023-03-14T08:00:17.167Z,10.87
2023-03-14T08:02:45.877Z,11.53
2023-03-14T08:05:13.009Z,8.50
2023-03-14T08:07:39.990Z,7.40
2023-03-14T08:10:07.665Z,14.00
2023-03-14T08:12:34.876Z,8.77
2023-03-14T08:15:01.864Z,6.20
2023-03-14T08:17:29.107Z,10.67
2023-03-14T08:19:56.106Z,10.03
2023-03-14T08:22:23.136Z,10.80
2023-03-14T08:24:50.004Z,12.70
2023-03-14T08:27:17.092Z,10.07
2023-03-14T08:29:44.741Z,8.03
2023-03-14T08:32:11.813Z,12.63
2023-03-14T08:34:38.859Z,7.63
2023-03-14T08:37:16.576Z,9.50
2023-03-14T08:39:50.752Z,11.27
2023-03-14T08:42:17.962Z,8.33
2023-03-14T08:44:45.582Z,14.30
2023-03-14T08:47:12.951Z,10.20
2023-03-14T08:49:40.674Z,10.50
2023-03-14T08:52:07.740Z,11.20
2023-03-14T08:54:34.762Z,12.97
2023-03-14T08:57:01.703Z,11.37
2023-03-14T08:59:28.702Z,11.37
2023-03-14T09:01:55.807Z,10.23
2023-03-14T09:04:23.280Z,9.33
2023-03-14T09:06:50.237Z,12.47
2023-03-14T09:09:18.166Z,8.67
2023-03-14T09:11:45.070Z,11.70
2023-03-14T09:14:12.015Z,9.47
2023-03-14T09:16:38.999Z,7.90
2023-03-14T09:19:06.673Z,11.23
2023-03-14T09:21:33.592Z,9.67
2023-03-14T09:24:00.936Z,9.53
2023-03-14T09:26:27.868Z,7.87
2023-03-14T09:28:56.506Z,9.70
2023-03-14T09:31:24.549Z,16.83
2023-03-14T09:33:51.560Z,10.10
2023-03-14T09:36:18.492Z,9.33
2023-03-14T09:38:45.457Z,12.53
2023-03-14T09:41:19.163Z,13.40
2023-03-14T09:43:47.548Z,14.77
2023-03-14T09:46:15.335Z,7.80
2023-03-14T09:48:42.991Z,8.10
2023-03-14T09:51:17.310Z,8.40
2023-03-14T09:53:47.025Z,4.77
2023-03-14T09:56:34.414Z,7.60
2023-03-14T09:59:06.874Z,5.80
2023-03-14T10:01:34.968Z,5.70
2023-03-14T10:04:07.914Z,7.07
2023-03-14T10:06:36.232Z,5.93
2023-03-14T10:09:05.512Z,8.83
2023-03-14T10:11:33.068Z,6.43
2023-03-14T10:14:07.745Z,3.13
2023-03-14T10:16:42.871Z,5.50
2023-03-14T10:19:15.791Z,6.07
2023-03-14T10:21:45.393Z,5.00
2023-03-14T10:24:23.455Z,9.07
2023-03-14T10:26:54.342Z,3.73
2023-03-14T10:29:22.719Z,4.60
2023-03-14T10:32:08.885Z,5.80
2023-03-14T10:34:38.522Z,5.83
2023-03-14T10:37:18.235Z,3.47
2023-03-14T10:39:51.789Z,3.07
2023-03-14T10:42:35.580Z,4.50
2023-03-14T10:45:06.665Z,3.73
2023-03-14T10:47:34.252Z,4.00
2023-03-14T10:50:24.527Z,4.07
2023-03-14T10:53:08.024Z,2.40
2023-03-14T10:55:46.317Z,5.07
2023-03-14T10:58:28.249Z,3.03
2023-03-14T11:01:14.161Z,5.23
2023-03-14T11:03:49.340Z,4.17
2023-03-14T11:06:28.722Z,1.90
2023-03-14T11:09:36.209Z,3.37
2023-03-14T11:12:21.181Z,2.20
2023-03-14T11:14:55.368Z,6.37
2023-03-14T11:17:35.508Z,4.13
2023-03-14T11:20:24.283Z,7.27
2023-03-14T11:23:17.366Z,13.17
2023-03-14T11:26:13.782Z,12.60
2023-03-14T11:28:44.737Z,12.17
2023-03-14T11:31:21.019Z,13.93
2023-03-14T11:34:06.387Z,17.77
2023-03-14T11:36:54.180Z,14.10
2023-03-14T11:39:22.494Z,14.30
2023-03-14T11:42:00.964Z,13.27
2023-03-14T11:44:35.665Z,15.53
2023-03-14T11:47:25.645Z,14.87
2023-03-14T11:50:11.427Z,13.23
2023-03-14T11:53:10.739Z,18.13
2023-03-14T11:55:39.985Z,14.63
2023-03-14T11:58:26.509Z,16.27
2023-03-14T12:00:57.428Z,15.03
2023-03-14T12:03:50.424Z,14.73
2023-03-14T12:06:39.342Z,11.93
2023-03-14T12:09:09.845Z,13.90
2023-03-14T12:11:57.548Z,13.03
2023-03-14T12:14:36.228Z,18.47
2023-03-14T12:17:22.295Z,16.60
2023-03-14T12:20:07.284Z,14.20
2023-03-14T12:22:47.708Z,14.17
2023-03-14T12:25:25.517Z,17.70
2023-03-14T12:27:55.590Z,15.03
2023-03-14T12:30:29.313Z,12.97
2023-03-14T12:33:14.243Z,14.67
2023-03-14T12:35:52.679Z,12.13
2023-03-14T12:38:31.292Z,15.13
2023-03-14T12:41:07.346Z,15.13
2023-03-14T12:43:35.780Z,14.83
2023-03-14T12:46:24.615Z,12.60
2023-03-14T12:49:03.900Z,12.37
2023-03-14T12:51:37.841Z,19.17
2023-03-14T12:54:16.594Z,13.20
2023-03-14T12:56:52.764Z,11.77
2023-03-14T12:59:36.289Z,12.00
2023-03-14T13:02:07.248Z,16.00
2023-03-14T13:04:46.744Z,14.53
2023-03-14T13:07:30.379Z,13.40
2023-03-14T13:12:50.867Z,14.03
2023-03-14T13:15:36.296Z,12.80
2023-03-14T13:18:28.168Z,12.87
2023-03-14T13:20:59.741Z,10.80
2023-03-14T13:23:35.245Z,12.43
2023-03-14T13:26:03.329Z,15.53
2023-03-14T13:28:31.810Z,11.00
2023-03-14T13:31:02.375Z,14.77
2023-03-14T13:33:29.565Z,12.03
2023-03-14T13:36:03.564Z,12.73
2023-03-14T13:38:32.865Z,12.33
2023-03-14T13:41:04.981Z,10.13
2023-03-14T13:43:35.239Z,11.37
2023-03-14T13:46:05.487Z,13.23
2023-03-14T13:48:36.473Z,12.30
2023-03-14T13:51:07.395Z,9.40
2023-03-14T13:53:53.652Z,11.30
2023-03-14T13:56:22.885Z,9.67
2023-03-14T13:58:50.411Z,8.60
2023-03-14T14:01:34.946Z,10.00
2023-03-14T14:04:17.757Z,10.47
2023-03-14T14:06:52.522Z,8.17
2023-03-14T14:09:23.877Z,10.07
2023-03-14T14:12:15.933Z,13.47
2023-03-14T14:14:55.894Z,13.33
2023-03-14T14:17:32.660Z,9.87
2023-03-14T14:20:02.024Z,12.20
2023-03-14T14:22:29.289Z,10.27
2023-03-14T14:24:56.334Z,10.77
2023-03-14T14:27:40.418Z,10.37
2023-03-14T14:30:25.807Z,8.23
2023-03-14T14:32:53.167Z,9.17
2023-03-14T14:35:32.531Z,9.37
2023-03-14T14:38:00.129Z,10.63
2023-03-14T14:40:29.570Z,11.13
2023-03-14T14:43:04.902Z,13.43
2023-03-14T14:45:34.966Z,11.37
2023-03-14T14:48:12.651Z,8.80
2023-03-14T14:50:50.766Z,9.53
2023-03-14T14:53:25.809Z,12.63
2023-03-14T14:55:55.674Z,11.73
2023-03-14T14:58:31.331Z,8.87
2023-03-14T15:01:25.535Z,9.33
2023-03-14T15:03:54.734Z,7.83
2023-03-14T15:06:22.259Z,8.90
2023-03-14T15:08:49.917Z,6.00
2023-03-14T15:11:25.461Z,10.37
2023-03-14T15:13:53.348Z,5.47
2023-03-14T15:16:23.219Z,6.93
2023-03-14T15:18:56.313Z,6.23
2023-03-14T15:21:25.299Z,7.37
2023-03-14T15:23:52.412Z,10.03
2023-03-14T15:26:22.390Z,6.53
2023-03-14T15:28:50.254Z,9.40
2023-03-14T15:31:18.862Z,9.40
2023-03-14T15:33:46.904Z,8.53
2023-03-14T15:36:26.205Z,7.77
2023-03-14T15:38:54.551Z,7.83
2023-03-14T15:41:22.484Z,8.57
2023-03-14T15:43:50.249Z,4.90
2023-03-14T15:46:18.442Z,8.43
2023-03-14T15:48:46.432Z,7.57
2023-03-14T15:51:13.880Z,5.83
2023-03-14T15:53:41.782Z,7.13
2023-03-14T15:56:13.649Z,5.13
2023-03-14T15:58:41.342Z,6.20
2023-03-14T16:01:12.463Z,6.47
2023-03-14T16:03:39.639Z,5.23
2023-03-14T16:06:07.053Z,9.63
2023-03-14T16:08:34.070Z,6.40
2023-03-14T16:11:01.097Z,8.40
2023-03-14T16:13:28.694Z,6.33
2023-03-14T16:16:00.663Z,6.53
2023-03-14T16:18:30.821Z,7.30
2023-03-14T16:21:03.551Z,6.13
2023-03-14T16:23:30.903Z,8.17
2023-03-14T16:25:58.273Z,7.87
2023-03-14T16:28:26.503Z,7.07
2023-03-14T16:30:59.969Z,8.57
2023-03-14T16:33:27.009Z,8.07
2023-03-14T16:36:00.832Z,7.73
2023-03-14T16:38:31.759Z,9.70
2023-03-14T16:41:10.861Z,9.70
2023-03-14T16:43:38.038Z,7.13
2023-03-14T16:46:07.096Z,8.47
2023-03-14T16:48:34.565Z,11.73
2023-03-14T16:51:01.445Z,8.23
2023-03-14T16:53:30.421Z,14.40
2023-03-14T16:55:58.586Z,6.90
2023-03-14T16:58:25.862Z,9.27
2023-03-14T17:00:52.881Z,7.83
2023-03-14T17:03:20.088Z,8.43
2023-03-14T17:05:48.507Z,7.43
2023-03-14T17:08:16.646Z,13.17
2023-03-14T17:10:43.705Z,8.30
2023-03-14T17:13:11.161Z,12.47
2023-03-14T17:15:38.602Z,10.07
2023-03-14T17:18:06.262Z,11.97
2023-03-14T17:20:34.209Z,13.37
2023-03-14T17:23:01.157Z,12.10
2023-03-14T17:25:28.125Z,11.40
2023-03-14T17:27:55.091Z,8.50
2023-03-14T17:30:22.232Z,10.43
2023-03-14T17:32:49.276Z,9.47
2023-03-14T17:35:16.530Z,11.50
2023-03-14T17:37:43.554Z,10.30
2023-03-14T17:40:11.352Z,8.47
2023-03-14T17:42:38.372Z,10.07
2023-03-14T17:45:05.914Z,12.03
2023-03-14T17:47:33.000Z,11.83
2023-03-14T17:50:00.061Z,17.10
2023-03-14T17:52:27.131Z,12.90
2023-03-14T17:54:54.130Z,11.97
2023-03-14T17:57:21.069Z,8.50
2023-03-14T17:59:48.028Z,11.63
2023-03-14T18:02:15.177Z,11.87
2023-03-14T18:04:42.323Z,12.70
2023-03-14T18:07:09.303Z,13.33
2023-03-14T18:09:36.323Z,11.93
2023-03-14T18:12:08.028Z,11.07
2023-03-14T18:14:39.285Z,13.30
2023-03-14T18:17:06.322Z,9.77
2023-03-14T18:19:33.274Z,14.23
2023-03-14T18:22:00.216Z,14.23
2023-03-14T18:24:28.834Z,11.40
2023-03-14T18:26:56.137Z,15.67
2023-03-14T18:29:23.072Z,11.90
2023-03-14T18:31:50.089Z,14.17
2023-03-14T18:34:17.333Z,11.17
2023-03-14T18:36:44.331Z,16.33
2023-03-14T18:39:11.222Z,17.17
2023-03-14T18:41:38.224Z,13.00
2023-03-14T18:44:05.279Z,14.33
2023-03-14T18:46:32.287Z,13.37
2023-03-14T18:49:04.816Z,16.43
2023-03-14T18:51:33.751Z,12.50
2023-03-14T18:54:10.369Z,13.40
2023-03-14T18:56:39.528Z,14.67
2023-03-14T18:59:07.613Z,20.20
2023-03-14T19:01:35.002Z,17.23
2023-03-14T19:04:03.530Z,18.23
2023-03-14T19:06:33.890Z,17.77
2023-03-14T19:09:02.260Z,12.47
2023-03-14T19:11:29.237Z,13.73
2023-03-14T19:13:57.092Z,17.90
2023-03-14T19:16:25.029Z,10.93
2023-03-14T19:18:52.537Z,15.60
2023-03-14T19:21:32.620Z,12.37
2023-03-14T19:24:00.639Z,13.83
2023-03-14T19:26:30.112Z,12.70
2023-03-14T19:28:57.184Z,13.10
2023-03-14T19:31:24.774Z,17.33
2023-03-14T19:33:52.051Z,13.50
2023-03-14T19:36:25.325Z,12.40
2023-03-14T19:38:53.078Z,13.80
2023-03-14T19:41:21.320Z,14.53
2023-03-14T19:43:48.218Z,13.07
2023-03-14T19:46:15.534Z,12.00
2023-03-14T19:48:45.400Z,12.90
2023-03-14T19:51:13.614Z,11.87
2023-03-14T19:53:42.042Z,17.30
2023-03-14T19:56:10.690Z,14.57
2023-03-14T19:58:41.332Z,17.97
2023-03-14T20:01:09.182Z,12.67
2023-03-14T20:03:36.818Z,14.97
2023-03-14T20:06:08.418Z,13.40
2023-03-14T20:08:35.963Z,12.50
2023-03-14T20:11:08.469Z,12.23
2023-03-14T20:13:35.602Z,11.57
2023-03-14T20:16:06.971Z,20.90
2023-03-14T20:18:33.973Z,13.77
2023-03-14T20:21:00.874Z,15.30
2023-03-14T20:23:27.909Z,17.23
2023-03-14T20:25:59.436Z,16.40
2023-03-14T20:28:26.664Z,15.87
2023-03-14T20:30:53.691Z,12.00
2023-03-14T20:33:21.207Z,15.87
2023-03-14T20:35:59.746Z,15.97
2023-03-14T20:38:27.888Z,13.83
2023-03-14T20:40:59.456Z,14.80
2023-03-14T20:43:27.484Z,15.43
2023-03-14T20:45:59.364Z,16.60
2023-03-14T20:48:28.194Z,12.50
2023-03-14T20:50:55.468Z,18.50
2023-03-14T20:53:23.515Z,19.80
2023-03-14T20:55:52.143Z,18.63
2023-03-14T20:58:19.237Z,15.10
2023-03-14T21:00:48.600Z,14.00
2023-03-14T21:03:16.950Z,15.83
2023-03-14T21:05:46.679Z,12.97
2023-03-14T21:08:18.871Z,17.80
2023-03-14T21:10:50.799Z,15.40
2023-03-14T21:13:17.898Z,15.93
2023-03-14T21:15:45.066Z,14.57
2023-03-14T21:18:12.227Z,15.20
2023-03-14T21:20:42.169Z,20.03
2023-03-14T21:23:11.746Z,17.13
2023-03-14T21:25:39.144Z,15.53
2023-03-14T21:28:06.110Z,14.67
2023-03-14T21:30:34.746Z,19.30
2023-03-14T21:33:02.252Z,13.00
2023-03-14T21:35:29.908Z,13.03
2023-03-14T21:37:56.971Z,17.07
2023-03-14T21:40:24.625Z,17.70
2023-03-14T21:42:53.222Z,17.43
2023-03-14T21:45:27.584Z,17.03
2023-03-14T21:47:55.418Z,16.73
2023-03-14T21:50:23.758Z,19.57
2023-03-14T21:52:52.141Z,21.17
2023-03-14T21:55:19.083Z,21.90
2023-03-14T21:57:49.504Z,17.73
2023-03-14T22:00:19.850Z,22.53
2023-03-14T22:03:03.240Z,19.63
2023-03-14T22:05:35.520Z,15.47
2023-03-14T22:08:02.444Z,19.87
2023-03-14T22:10:29.354Z,15.20
2023-03-14T22:12:57.808Z,17.00
2023-03-14T22:15:24.863Z,19.07
2023-03-14T22:17:51.799Z,16.53
2023-03-14T22:20:18.756Z,18.17
2023-03-14T22:22:45.702Z,17.77
2023-03-14T22:25:12.658Z,14.50
2023-03-14T22:27:39.627Z,16.27
2023-03-14T22:30:07.162Z,13.63
2023-03-14T22:32:34.442Z,16.03
2023-03-14T22:35:01.403Z,17.23
2023-03-14T22:37:28.543Z,14.57
2023-03-14T22:39:55.505Z,13.67
2023-03-14T22:42:22.465Z,15.50
2023-03-14T22:44:52.320Z,17.63
2023-03-14T22:47:19.214Z,16.37
2023-03-14T22:49:46.254Z,18.93
2023-03-14T22:52:13.579Z,17.33
2023-03-14T22:54:40.630Z,20.90
2023-03-14T22:57:07.757Z,18.13
2023-03-14T22:59:34.773Z,16.47
2023-03-14T23:02:01.690Z,16.80
2023-03-14T23:04:29.100Z,17.03
2023-03-14T23:06:55.979Z,18.90
2023-03-14T23:09:23.038Z,19.00
2023-03-14T23:11:50.775Z,16.87
2023-03-14T23:14:17.865Z,19.23
2023-03-14T23:16:47.370Z,20.97
2023-03-14T23:19:14.481Z,22.83
2023-03-14T23:21:41.507Z,19.70
2023-03-14T23:24:08.873Z,15.67
2023-03-14T23:26:36.058Z,17.77
2023-03-14T23:29:07.289Z,21.53
2023-03-14T23:31:34.760Z,22.00
2023-03-14T23:34:02.037Z,18.90
2023-03-14T23:36:29.733Z,20.40
2023-03-14T23:38:56.907Z,20.17
2023-03-14T23:41:23.938Z,18.37
2023-03-14T23:43:50.998Z,20.30
2023-03-14T23:46:18.170Z,21.87
2023-03-14T23:48:46.974Z,16.67
2023-03-14T23:51:15.151Z,17.30
2023-03-14T23:53:42.825Z,18.53
2023-03-14T23:56:14.118Z,20.23
2023-03-14T23:58:41.844Z,22.13
